sensor_id;sensor_type;location;lat;lon;timestamp;pressure;altitude;pressure_sealevel;temperature
69590;BMP180;56792;50.644;17.984;2023-07-20T13:10:34;99241.00;;;26.34
69590;BMP180;56792;50.644;17.984;2023-07-20T13:13:02;99245.40;;;26.20
69590;BMP180;56792;50.644;17.984;2023-07-20T13:15:44;99256.60;;;26.00
69590;BMP180;56792;50.644;17.984;2023-07-20T13:18:14;99256.00;;;25.90
69590;BMP180;56792;50.644;17.984;2023-07-20T13:20:42;99264.60;;;25.80
69590;BMP180;56792;50.644;17.984;2023-07-20T13:23:10;99250.00;;;25.60
69590;BMP180;56792;50.644;17.984;2023-07-20T13:25:39;99250.80;;;25.34
69590;BMP180;56792;50.644;17.984;2023-07-20T13:28:07;99256.40;;;25.20
69590;BMP180;56792;50.644;17.984;2023-07-20T13:30:35;99270.60;;;25.00
69590;BMP180;56792;50.644;17.984;2023-07-20T13:33:04;99284.80;;;24.80
69590;BMP180;56792;50.644;17.984;2023-07-20T13:35:32;99290.60;;;24.60
69590;BMP180;56792;50.644;17.984;2023-07-20T13:38:01;99301.20;;;24.50
69590;BMP180;56792;50.644;17.984;2023-07-20T13:40:29;99307.40;;;24.30
69590;BMP180;56792;50.644;17.984;2023-07-20T13:42:57;99305.60;;;24.10
69590;BMP180;56792;50.644;17.984;2023-07-20T13:45:26;99311.00;;;23.82
69590;BMP180;56792;50.644;17.984;2023-07-20T13:47:54;99307.00;;;23.60
69590;BMP180;56792;50.644;17.984;2023-07-20T13:50:23;99304.00;;;23.40
69590;BMP180;56792;50.644;17.984;2023-07-20T13:52:51;99299.00;;;23.40
69590;BMP180;56792;50.644;17.984;2023-07-20T13:55:20;99296.00;;;23.40
69590;BMP180;56792;50.644;17.984;2023-07-20T13:57:49;99293.60;;;23.50
69590;BMP180;56792;50.644;17.984;2023-07-20T14:00:20;99289.60;;;23.60
69590;BMP180;56792;50.644;17.984;2023-07-20T14:02:48;99284.20;;;23.70
69590;BMP180;56792;50.644;17.984;2023-07-20T14:05:17;99283.20;;;23.80
69590;BMP180;56792;50.644;17.984;2023-07-20T14:07:47;99280.40;;;23.90
69590;BMP180;56792;50.644;17.984;2023-07-20T14:10:15;99281.40;;;24.00
69590;BMP180;56792;50.644;17.984;2023-07-20T14:12:44;99275.80;;;24.04
69590;BMP180;56792;50.644;17.984;2023-07-20T14:15:13;99277.00;;;24.00
69590;BMP180;56792;50.644;17.984;2023-07-20T14:17:41;99273.00;;;24.10
69590;BMP180;56792;50.644;17.984;2023-07-20T14:20:12;99273.00;;;24.10
69590;BMP180;56792;50.644;17.984;2023-07-20T14:22:40;99272.80;;;24.20
69590;BMP180;56792;50.644;17.984;2023-07-20T14:25:10;99274.80;;;24.20
69590;BMP180;56792;50.644;17.984;2023-07-20T14:27:38;99270.40;;;24.36
69590;BMP180;56792;50.644;17.984;2023-07-20T14:30:09;99273.60;;;24.40
69590;BMP180;56792;50.644;17.984;2023-07-20T14:32:39;99274.20;;;24.40
69590;BMP180;56792;50.644;17.984;2023-07-20T14:35:09;99273.40;;;24.40
69590;BMP180;56792;50.644;17.984;2023-07-20T14:37:37;99268.60;;;24.40
69590;BMP180;56792;50.644;17.984;2023-07-20T14:40:09;99271.40;;;24.40
69590;BMP180;56792;50.644;17.984;2023-07-20T14:42:37;99264.00;;;24.50
69590;BMP180;56792;50.644;17.984;2023-07-20T14:45:07;99268.60;;;24.60
69590;BMP180;56792;50.644;17.984;2023-07-20T14:47:36;99263.80;;;24.62
69590;BMP180;56792;50.644;17.984;2023-07-20T14:50:06;99263.40;;;24.70
69590;BMP180;56792;50.644;17.984;2023-07-20T14:52:35;99262.40;;;24.70
69590;BMP180;56792;50.644;17.984;2023-07-20T14:55:04;99261.20;;;24.80
69590;BMP180;56792;50.644;17.984;2023-07-20T14:57:33;99263.60;;;24.90
69590;BMP180;56792;50.644;17.984;2023-07-20T15:00:01;99257.40;;;24.90
69590;BMP180;56792;50.644;17.984;2023-07-20T15:02:31;99261.80;;;24.96
69590;BMP180;56792;50.644;17.984;2023-07-20T15:04:59;99258.40;;;25.00
69590;BMP180;56792;50.644;17.984;2023-07-20T15:07:28;99260.80;;;25.00
69590;BMP180;56792;50.644;17.984;2023-07-20T15:09:56;99256.60;;;25.00
69590;BMP180;56792;50.644;17.984;2023-07-20T15:12:24;99261.00;;;25.00
69590;BMP180;56792;50.644;17.984;2023-07-20T15:15:07;99263.40;;;25.00
69590;BMP180;56792;50.644;17.984;2023-07-20T15:17:37;99262.00;;;25.00
69590;BMP180;56792;50.644;17.984;2023-07-20T15:20:10;99261.80;;;25.00
69590;BMP180;56792;50.644;17.984;2023-07-20T15:22:39;99258.00;;;25.00
69590;BMP180;56792;50.644;17.984;2023-07-20T15:25:10;99256.20;;;24.90
69590;BMP180;56792;50.644;17.984;2023-07-20T15:27:40;99259.20;;;24.90
69590;BMP180;56792;50.644;17.984;2023-07-20T15:30:12;99255.20;;;24.90
69590;BMP180;56792;50.644;17.984;2023-07-20T15:32:40;99260.00;;;24.90
69590;BMP180;56792;50.644;17.984;2023-07-20T15:35:11;99253.80;;;24.90
69590;BMP180;56792;50.644;17.984;2023-07-20T15:37:39;99253.40;;;24.90
69590;BMP180;56792;50.644;17.984;2023-07-20T15:40:11;99247.00;;;24.88
69590;BMP180;56792;50.644;17.984;2023-07-20T15:42:40;99254.60;;;24.80
69590;BMP180;56792;50.644;17.984;2023-07-20T15:45:10;99246.20;;;24.80
69590;BMP180;56792;50.644;17.984;2023-07-20T15:47:39;99248.60;;;24.90
69590;BMP180;56792;50.644;17.984;2023-07-20T15:50:09;99255.80;;;24.88
69590;BMP180;56792;50.644;17.984;2023-07-20T15:52:38;99251.80;;;24.80
69590;BMP180;56792;50.644;17.984;2023-07-20T15:55:09;99255.40;;;24.80
69590;BMP180;56792;50.644;17.984;2023-07-20T15:57:38;99254.80;;;24.80
69590;BMP180;56792;50.644;17.984;2023-07-20T16:00:09;99259.00;;;24.80
69590;BMP180;56792;50.644;17.984;2023-07-20T16:02:40;99258.40;;;24.80
69590;BMP180;56792;50.644;17.984;2023-07-20T16:05:10;99256.00;;;24.80
69590;BMP180;56792;50.644;17.984;2023-07-20T16:07:38;99255.00;;;24.80
69590;BMP180;56792;50.644;17.984;2023-07-20T16:10:08;99256.00;;;24.70
69590;BMP180;56792;50.644;17.984;2023-07-20T16:12:37;99267.60;;;24.70
69590;BMP180;56792;50.644;17.984;2023-07-20T16:15:09;99268.00;;;24.70
69590;BMP180;56792;50.644;17.984;2023-07-20T16:17:37;99266.00;;;24.70
69590;BMP180;56792;50.644;17.984;2023-07-20T16:20:09;99265.20;;;24.70
69590;BMP180;56792;50.644;17.984;2023-07-20T16:22:38;99267.20;;;24.70
69590;BMP180;56792;50.644;17.984;2023-07-20T16:25:10;99266.20;;;24.70
69590;BMP180;56792;50.644;17.984;2023-07-20T16:27:38;99263.80;;;24.66
69590;BMP180;56792;50.644;17.984;2023-07-20T16:30:09;99265.60;;;24.60
69590;BMP180;56792;50.644;17.984;2023-07-20T16:32:37;99255.00;;;24.60
69590;BMP180;56792;50.644;17.984;2023-07-20T16:35:07;99255.40;;;24.60
69590;BMP180;56792;50.644;17.984;2023-07-20T16:37:36;99251.60;;;24.60
69590;BMP180;56792;50.644;17.984;2023-07-20T16:40:09;99254.80;;;24.50
69590;BMP180;56792;50.644;17.984;2023-07-20T16:42:40;99257.00;;;24.40
69590;BMP180;56792;50.644;17.984;2023-07-20T16:45:10;99254.80;;;24.40
69590;BMP180;56792;50.644;17.984;2023-07-20T16:47:38;99261.40;;;24.40
69590;BMP180;56792;50.644;17.984;2023-07-20T16:50:09;99260.60;;;24.30
69590;BMP180;56792;50.644;17.984;2023-07-20T16:52:38;99264.60;;;24.30
69590;BMP180;56792;50.644;17.984;2023-07-20T16:55:08;99268.20;;;24.20
69590;BMP180;56792;50.644;17.984;2023-07-20T16:57:36;99272.60;;;24.20
69590;BMP180;56792;50.644;17.984;2023-07-20T17:00:08;99270.60;;;24.10
69590;BMP180;56792;50.644;17.984;2023-07-20T17:02:38;99275.00;;;24.10
69590;BMP180;56792;50.644;17.984;2023-07-20T17:05:09;99277.40;;;24.00
69590;BMP180;56792;50.644;17.984;2023-07-20T17:07:37;99278.40;;;24.00
69590;BMP180;56792;50.644;17.984;2023-07-20T17:10:08;99279.60;;;23.90
69590;BMP180;56792;50.644;17.984;2023-07-20T17:12:39;99278.80;;;23.86
69590;BMP180;56792;50.644;17.984;2023-07-20T17:15:09;99281.40;;;23.80
69590;BMP180;56792;50.644;17.984;2023-07-20T17:17:38;99280.80;;;23.70
69590;BMP180;56792;50.644;17.984;2023-07-20T17:20:10;99281.20;;;23.62
69590;BMP180;56792;50.644;17.984;2023-07-20T17:22:39;99279.80;;;23.60
69590;BMP180;56792;50.644;17.984;2023-07-20T17:25:09;99280.80;;;23.50
69590;BMP180;56792;50.644;17.984;2023-07-20T17:27:39;99280.20;;;23.40
69590;BMP180;56792;50.644;17.984;2023-07-20T17:30:10;99283.80;;;23.34
69590;BMP180;56792;50.644;17.984;2023-07-20T17:32:38;99285.40;;;23.30
69590;BMP180;56792;50.644;17.984;2023-07-20T17:35:09;99286.40;;;23.30
69590;BMP180;56792;50.644;17.984;2023-07-20T17:37:40;99282.00;;;23.26
69590;BMP180;56792;50.644;17.984;2023-07-20T17:40:11;99285.20;;;23.20
69590;BMP180;56792;50.644;17.984;2023-07-20T17:42:40;99280.20;;;23.20
69590;BMP180;56792;50.644;17.984;2023-07-20T17:45:11;99281.20;;;23.20
69590;BMP180;56792;50.644;17.984;2023-07-20T17:47:39;99281.00;;;23.20
69590;BMP180;56792;50.644;17.984;2023-07-20T17:50:10;99281.80;;;23.20
69590;BMP180;56792;50.644;17.984;2023-07-20T17:52:39;99286.20;;;23.14
69590;BMP180;56792;50.644;17.984;2023-07-20T17:55:09;99287.00;;;23.10
69590;BMP180;56792;50.644;17.984;2023-07-20T17:57:37;99283.00;;;23.10
69590;BMP180;56792;50.644;17.984;2023-07-20T18:00:09;99284.00;;;23.10
69590;BMP180;56792;50.644;17.984;2023-07-20T18:02:39;99286.80;;;23.10
69590;BMP180;56792;50.644;17.984;2023-07-20T18:05:08;99282.40;;;23.10
69590;BMP180;56792;50.644;17.984;2023-07-20T18:07:37;99282.60;;;23.04
69590;BMP180;56792;50.644;17.984;2023-07-20T18:10:09;99288.80;;;23.00
69590;BMP180;56792;50.644;17.984;2023-07-20T18:12:38;99288.00;;;22.82
69590;BMP180;56792;50.644;17.984;2023-07-20T18:15:08;99287.40;;;22.70
69590;BMP180;56792;50.644;17.984;2023-07-20T18:17:37;99291.60;;;22.60
69590;BMP180;56792;50.644;17.984;2023-07-20T18:20:09;99293.20;;;22.40
69590;BMP180;56792;50.644;17.984;2023-07-20T18:22:38;99290.60;;;22.30
69590;BMP180;56792;50.644;17.984;2023-07-20T18:25:08;99289.60;;;22.20
69590;BMP180;56792;50.644;17.984;2023-07-20T18:27:36;99295.60;;;22.00
69590;BMP180;56792;50.644;17.984;2023-07-20T18:30:08;99295.00;;;21.90
69590;BMP180;56792;50.644;17.984;2023-07-20T18:32:36;99293.60;;;21.80
69590;BMP180;56792;50.644;17.984;2023-07-20T18:35:07;99294.40;;;21.70
69590;BMP180;56792;50.644;17.984;2023-07-20T18:37:35;99304.40;;;21.60
69590;BMP180;56792;50.644;17.984;2023-07-20T18:40:05;99305.00;;;21.58
69590;BMP180;56792;50.644;17.984;2023-07-20T18:42:35;99310.00;;;21.40
69590;BMP180;56792;50.644;17.984;2023-07-20T18:45:05;99310.00;;;21.40
69590;BMP180;56792;50.644;17.984;2023-07-20T18:47:33;99316.00;;;21.38
69590;BMP180;56792;50.644;17.984;2023-07-20T18:50:03;99319.20;;;21.30
69590;BMP180;56792;50.644;17.984;2023-07-20T18:52:32;99314.60;;;21.20
69590;BMP180;56792;50.644;17.984;2023-07-20T18:55:00;99317.80;;;21.10
69590;BMP180;56792;50.644;17.984;2023-07-20T18:57:30;99317.80;;;21.00
69590;BMP180;56792;50.644;17.984;2023-07-20T18:59:58;99315.40;;;20.90
69590;BMP180;56792;50.644;17.984;2023-07-20T19:02:29;99318.40;;;20.80
69590;BMP180;56792;50.644;17.984;2023-07-20T19:04:57;99320.20;;;20.70
69590;BMP180;56792;50.644;17.984;2023-07-20T19:07:26;99317.80;;;20.68
69590;BMP180;56792;50.644;17.984;2023-07-20T19:09:54;99322.20;;;20.60
69590;BMP180;56792;50.644;17.984;2023-07-20T19:12:22;99329.20;;;20.50
69590;BMP180;56792;50.644;17.984;2023-07-20T19:14:51;99336.00;;;20.40
69590;BMP180;56792;50.644;17.984;2023-07-20T19:17:19;99338.00;;;20.30
69590;BMP180;56792;50.644;17.984;2023-07-20T19:19:52;99339.40;;;20.22
69590;BMP180;56792;50.644;17.984;2023-07-20T19:22:20;99341.80;;;20.10
69590;BMP180;56792;50.644;17.984;2023-07-20T19:24:48;99347.80;;;20.00
69590;BMP180;56792;50.644;17.984;2023-07-20T19:27:17;99354.20;;;20.00
69590;BMP180;56792;50.644;17.984;2023-07-20T19:29:46;99355.60;;;19.98
69590;BMP180;56792;50.644;17.984;2023-07-20T19:32:14;99355.40;;;19.90
69590;BMP180;56792;50.644;17.984;2023-07-20T19:34:42;99354.60;;;19.90
69590;BMP180;56792;50.644;17.984;2023-07-20T19:37:11;99354.40;;;19.80
69590;BMP180;56792;50.644;17.984;2023-07-20T19:39:39;99353.80;;;19.70
69590;BMP180;56792;50.644;17.984;2023-07-20T19:42:08;99350.20;;;19.60
69590;BMP180;56792;50.644;17.984;2023-07-20T19:44:37;99353.80;;;19.50
69590;BMP180;56792;50.644;17.984;2023-07-20T19:47:07;99352.00;;;19.50
69590;BMP180;56792;50.644;17.984;2023-07-20T19:49:35;99353.00;;;19.40
69590;BMP180;56792;50.644;17.984;2023-07-20T19:52:05;99352.20;;;19.30
69590;BMP180;56792;50.644;17.984;2023-07-20T19:54:33;99355.20;;;19.30
69590;BMP180;56792;50.644;17.984;2023-07-20T19:57:02;99355.40;;;19.28
69590;BMP180;56792;50.644;17.984;2023-07-20T19:59:31;99355.00;;;19.20
69590;BMP180;56792;50.644;17.984;2023-07-20T20:02:00;99361.60;;;19.20
69590;BMP180;56792;50.644;17.984;2023-07-20T20:04:29;99356.40;;;19.10
69590;BMP180;56792;50.644;17.984;2023-07-20T20:06:57;99360.00;;;19.10
69590;BMP180;56792;50.644;17.984;2023-07-20T20:09:27;99362.60;;;19.02
69590;BMP180;56792;50.644;17.984;2023-07-20T20:11:55;99365.80;;;19.00
69590;BMP180;56792;50.644;17.984;2023-07-20T20:14:24;99369.80;;;19.00
69590;BMP180;56792;50.644;17.984;2023-07-20T20:16:53;99371.60;;;18.94
69590;BMP180;56792;50.644;17.984;2023-07-20T20:19:22;99368.80;;;18.90
69590;BMP180;56792;50.644;17.984;2023-07-20T20:21:50;99368.80;;;18.90
69590;BMP180;56792;50.644;17.984;2023-07-20T20:24:18;99370.20;;;18.82
69590;BMP180;56792;50.644;17.984;2023-07-20T20:26:47;99370.60;;;18.80
69590;BMP180;56792;50.644;17.984;2023-07-20T20:29:15;99368.20;;;18.80
69590;BMP180;56792;50.644;17.984;2023-07-20T20:31:44;99367.20;;;18.74
69590;BMP180;56792;50.644;17.984;2023-07-20T20:34:12;99373.60;;;18.70
69590;BMP180;56792;50.644;17.984;2023-07-20T20:36:40;99374.40;;;18.70
69590;BMP180;56792;50.644;17.984;2023-07-20T20:39:11;99377.20;;;18.68
69590;BMP180;56792;50.644;17.984;2023-07-20T20:41:39;99377.00;;;18.60
69590;BMP180;56792;50.644;17.984;2023-07-20T20:44:12;99377.80;;;18.60
69590;BMP180;56792;50.644;17.984;2023-07-20T20:46:42;99378.20;;;18.58
69590;BMP180;56792;50.644;17.984;2023-07-20T20:49:11;99373.40;;;18.50
69590;BMP180;56792;50.644;17.984;2023-07-20T20:51:40;99375.20;;;18.50
69590;BMP180;56792;50.644;17.984;2023-07-20T20:54:09;99377.00;;;18.50
69590;BMP180;56792;50.644;17.984;2023-07-20T20:56:38;99375.20;;;18.50
69590;BMP180;56792;50.644;17.984;2023-07-20T20:59:07;99375.00;;;18.50
69590;BMP180;56792;50.644;17.984;2023-07-20T21:01:35;99375.80;;;18.60
69590;BMP180;56792;50.644;17.984;2023-07-20T21:04:04;99372.40;;;18.64
69590;BMP180;56792;50.644;17.984;2023-07-20T21:06:32;99373.00;;;18.70
69590;BMP180;56792;50.644;17.984;2023-07-20T21:09:01;99375.60;;;18.70
69590;BMP180;56792;50.644;17.984;2023-07-20T21:11:30;99366.60;;;18.62
69590;BMP180;56792;50.644;17.984;2023-07-20T21:13:58;99367.00;;;18.60
69590;BMP180;56792;50.644;17.984;2023-07-20T21:16:26;99371.40;;;18.60
69590;BMP180;56792;50.644;17.984;2023-07-20T21:18:55;99371.20;;;18.60
69590;BMP180;56792;50.644;17.984;2023-07-20T21:21:23;99373.00;;;18.56
69590;BMP180;56792;50.644;17.984;2023-07-20T21:23:51;99373.80;;;18.50
69590;BMP180;56792;50.644;17.984;2023-07-20T21:26:20;99378.40;;;18.50
69590;BMP180;56792;50.644;17.984;2023-07-20T21:28:48;99383.20;;;18.42
69590;BMP180;56792;50.644;17.984;2023-07-20T21:31:16;99378.40;;;18.40
69590;BMP180;56792;50.644;17.984;2023-07-20T21:33:45;99384.60;;;18.36
69590;BMP180;56792;50.644;17.984;2023-07-20T21:36:13;99382.00;;;18.40
69590;BMP180;56792;50.644;17.984;2023-07-20T21:38:42;99383.20;;;18.50
69590;BMP180;56792;50.644;17.984;2023-07-20T21:41:10;99391.60;;;18.50
69590;BMP180;56792;50.644;17.984;2023-07-20T21:43:39;99390.20;;;18.50
69590;BMP180;56792;50.644;17.984;2023-07-20T21:46:07;99391.00;;;18.50
69590;BMP180;56792;50.644;17.984;2023-07-20T21:48:35;99394.00;;;18.40
69590;BMP180;56792;50.644;17.984;2023-07-20T21:51:06;99390.80;;;18.40
69590;BMP180;56792;50.644;17.984;2023-07-20T21:53:34;99393.20;;;18.30
69590;BMP180;56792;50.644;17.984;2023-07-20T21:56:03;99395.20;;;18.30
69590;BMP180;56792;50.644;17.984;2023-07-20T21:58:32;99397.80;;;18.22
69590;BMP180;56792;50.644;17.984;2023-07-20T22:01:00;99394.40;;;18.20
69590;BMP180;56792;50.644;17.984;2023-07-20T22:03:31;99393.00;;;18.10
69590;BMP180;56792;50.644;17.984;2023-07-20T22:06:02;99389.40;;;18.10
69590;BMP180;56792;50.644;17.984;2023-07-20T22:08:31;99388.80;;;18.00
69590;BMP180;56792;50.644;17.984;2023-07-20T22:11:06;99395.60;;;18.00
69590;BMP180;56792;50.644;17.984;2023-07-20T22:13:35;99398.00;;;17.90
69590;BMP180;56792;50.644;17.984;2023-07-20T22:16:05;99400.20;;;17.86
69590;BMP180;56792;50.644;17.984;2023-07-20T22:18:35;99394.80;;;17.80
69590;BMP180;56792;50.644;17.984;2023-07-20T22:21:04;99395.60;;;17.70
69590;BMP180;56792;50.644;17.984;2023-07-20T22:23:33;99396.60;;;17.66
69590;BMP180;56792;50.644;17.984;2023-07-20T22:26:02;99398.80;;;17.60
69590;BMP180;56792;50.644;17.984;2023-07-20T22:28:31;99399.00;;;17.60
69590;BMP180;56792;50.644;17.984;2023-07-20T22:31:00;99398.00;;;17.60
69590;BMP180;56792;50.644;17.984;2023-07-20T22:33:28;99396.20;;;17.50
69590;BMP180;56792;50.644;17.984;2023-07-20T22:35:57;99404.20;;;17.50
69590;BMP180;56792;50.644;17.984;2023-07-20T22:38:26;99405.40;;;17.50
69590;BMP180;56792;50.644;17.984;2023-07-20T22:40:55;99408.60;;;17.50
69590;BMP180;56792;50.644;17.984;2023-07-20T22:43:23;99410.00;;;17.50
69590;BMP180;56792;50.644;17.984;2023-07-20T22:45:53;99409.80;;;17.50
69590;BMP180;56792;50.644;17.984;2023-07-20T22:48:22;99408.00;;;17.50
69590;BMP180;56792;50.644;17.984;2023-07-20T22:50:54;99411.80;;;17.50
69590;BMP180;56792;50.644;17.984;2023-07-20T22:53:26;99409.80;;;17.48
69590;BMP180;56792;50.644;17.984;2023-07-20T22:55:57;99411.00;;;17.50
69590;BMP180;56792;50.644;17.984;2023-07-20T22:58:25;99409.00;;;17.50
69590;BMP180;56792;50.644;17.984;2023-07-20T23:00:54;99401.40;;;17.50
69590;BMP180;56792;50.644;17.984;2023-07-20T23:03:22;99402.60;;;17.50
69590;BMP180;56792;50.644;17.984;2023-07-20T23:05:52;99405.40;;;17.50
69590;BMP180;56792;50.644;17.984;2023-07-20T23:08:21;99403.40;;;17.50
69590;BMP180;56792;50.644;17.984;2023-07-20T23:10:50;99399.00;;;17.50
69590;BMP180;56792;50.644;17.984;2023-07-20T23:13:18;99398.20;;;17.42
69590;BMP180;56792;50.644;17.984;2023-07-20T23:15:49;99398.00;;;17.40
69590;BMP180;56792;50.644;17.984;2023-07-20T23:18:18;99401.40;;;17.40
69590;BMP180;56792;50.644;17.984;2023-07-20T23:20:48;99392.80;;;17.40
69590;BMP180;56792;50.644;17.984;2023-07-20T23:23:16;99396.20;;;17.40
69590;BMP180;56792;50.644;17.984;2023-07-20T23:25:45;99396.00;;;17.40
69590;BMP180;56792;50.644;17.984;2023-07-20T23:28:18;99391.60;;;17.42
69590;BMP180;56792;50.644;17.984;2023-07-20T23:30:48;99392.20;;;17.50
69590;BMP180;56792;50.644;17.984;2023-07-20T23:33:17;99391.00;;;17.50
69590;BMP180;56792;50.644;17.984;2023-07-20T23:35:46;99386.00;;;17.50
69590;BMP180;56792;50.644;17.984;2023-07-20T23:38:15;99393.20;;;17.50
69590;BMP180;56792;50.644;17.984;2023-07-20T23:40:44;99396.60;;;17.50
69590;BMP180;56792;50.644;17.984;2023-07-20T23:43:13;99392.80;;;17.50
69590;BMP180;56792;50.644;17.984;2023-07-20T23:45:41;99389.20;;;17.50
69590;BMP180;56792;50.644;17.984;2023-07-20T23:48:10;99384.00;;;17.50
69590;BMP180;56792;50.644;17.984;2023-07-20T23:50:41;99380.40;;;17.50
69590;BMP180;56792;50.644;17.984;2023-07-20T23:53:10;99377.60;;;17.50
69590;BMP180;56792;50.644;17.984;2023-07-20T23:55:39;99379.00;;;17.52
69590;BMP180;56792;50.644;17.984;2023-07-20T23:58:07;99379.40;;;17.52
